Time;durP1;ratioP1;P1;durP2;ratioP2;P2;SDS_P1;SDS_P2;PMS_P1;PMS_P2;Temp;Humidity;BMP_temperature;BMP_pressure;BME280_temperature;BME280_humidity;BME280_pressure;Samples;Min_cycle;Max_cycle;Signal;HPM_P1;HPM_P2
2023/09/08 00:01:16;;;;;;;16.90;5.80;;;;;;;14.70;49.08;100141.31;78665;1294;3026567;-68
2023/09/08 00:03:42;;;;;;;13.40;5.40;;;;;;;14.69;49.57;100142.98;79960;1294;3018721;-67
2023/09/08 00:06:09;;;;;;;12.50;5.50;;;;;;;14.67;49.31;100142.17;79807;1295;3012010;-70
2023/09/08 00:08:37;;;;;;;18.80;5.90;;;;;;;14.67;49.38;100147.53;78660;1295;3027082;-69
2023/09/08 00:11:04;;;;;;;19.40;5.40;;;;;;;14.66;49.50;100144.93;79931;1289;3013513;-69
2023/09/08 00:13:31;;;;;;;12.70;4.70;;;;;;;14.64;49.55;100147.32;79783;1290;3012991;-71
2023/09/08 00:15:59;;;;;;;14.70;5.10;;;;;;;14.63;49.58;100150.92;78586;1294;3052728;-69
2023/09/08 00:18:26;;;;;;;10.60;4.80;;;;;;;14.58;49.64;100151.39;79986;1294;3013425;-69
2023/09/08 00:20:52;;;;;;;10.70;5.10;;;;;;;14.60;49.69;100149.70;79846;1294;3011846;-68
2023/09/08 00:23:20;;;;;;;11.60;5.10;;;;;;;14.61;49.63;100146.99;78677;1294;3026723;-68
2023/09/08 00:25:46;;;;;;;17.30;5.40;;;;;;;14.58;50.32;100151.39;79863;1294;3013102;-69
2023/09/08 00:28:13;;;;;;;11.80;5.90;;;;;;;14.56;50.43;100152.05;79659;1289;3011738;-68
2023/09/08 00:30:41;;;;;;;12.30;5.20;;;;;;;14.54;50.11;100152.06;78461;1295;3026565;-68
2023/09/08 00:33:08;;;;;;;11.50;5.10;;;;;;;14.50;50.47;100149.30;79766;1295;3012869;-68
2023/09/08 00:35:35;;;;;;;15.70;6.00;;;;;;;14.45;50.73;100147.85;79775;1292;3011451;-69
2023/09/08 00:38:03;;;;;;;15.40;5.60;;;;;;;14.42;50.70;100147.71;78536;1292;3055040;-70
2023/09/08 00:40:30;;;;;;;15.90;5.80;;;;;;;14.35;50.74;100143.23;79783;1294;3021051;-67
2023/09/08 00:42:56;;;;;;;12.40;5.20;;;;;;;14.34;50.99;100142.96;79830;1292;3011635;-68
2023/09/08 00:45:26;;;;;;;19.60;6.10;;;;;;;14.30;51.43;100147.82;78619;1295;3028268;-70
2023/09/08 00:47:53;;;;;;;13.50;6.20;;;;;;;14.26;51.27;100146.11;79847;1294;3011635;-71
2023/09/08 00:50:19;;;;;;;14.50;5.60;;;;;;;14.25;51.02;100146.52;79867;1293;3013284;-69
2023/09/08 00:52:47;;;;;;;13.30;5.80;;;;;;;14.23;51.06;100147.86;78441;1297;3056678;-68
2023/09/08 00:55:14;;;;;;;15.10;6.50;;;;;;;14.22;51.08;100149.86;79811;1292;3012979;-67
2023/09/08 00:57:40;;;;;;;15.80;6.70;;;;;;;14.16;51.37;100149.95;79853;1294;3011389;-69
2023/09/08 01:00:09;;;;;;;18.50;5.70;;;;;;;14.12;51.59;100147.35;78645;1294;3026345;-69
2023/09/08 01:02:36;;;;;;;15.70;6.20;;;;;;;14.04;51.61;100149.27;80010;1291;3013666;-69
2023/09/08 01:05:02;;;;;;;16.80;5.40;;;;;;;14.01;51.56;100150.02;79806;1292;3013548;-67
2023/09/08 01:07:31;;;;;;;11.00;5.30;;;;;;;13.89;51.84;100151.63;78607;1294;3055985;-69
2023/09/08 01:09:57;;;;;;;21.20;6.10;;;;;;;13.89;51.75;100149.89;79823;1293;3014130;-68
2023/09/08 01:12:24;;;;;;;19.50;6.60;;;;;;;13.87;51.77;100153.02;79718;1294;3013227;-66
2023/09/08 01:14:52;;;;;;;20.20;6.90;;;;;;;13.84;51.80;100150.75;78420;1297;3025035;-66
2023/09/08 01:17:18;;;;;;;16.80;6.70;;;;;;;13.77;52.00;100156.59;79779;1294;3018850;-67
2023/09/08 01:19:45;;;;;;;13.90;6.20;;;;;;;13.78;51.81;100152.00;79693;1292;3011636;-66
2023/09/08 01:22:45;;;;;;;22.00;7.10;;;;;;;13.76;52.03;100153.66;78340;1297;3026269;-67
2023/09/08 01:25:24;;;;;;;14.10;7.40;;;;;;;13.68;52.50;100154.69;78423;1294;3049266;-67
2023/09/08 01:27:55;;;;;;;12.60;5.10;;;;;;;13.68;52.68;100152.09;78557;1292;3052646;-67
2023/09/08 01:30:23;;;;;;;17.70;5.20;;;;;;;13.63;52.69;100152.39;79691;1295;3013169;-67
2023/09/08 01:32:51;;;;;;;11.70;5.70;;;;;;;13.62;53.02;100149.80;78657;1294;3052358;-66
2023/09/08 01:35:18;;;;;;;12.60;5.20;;;;;;;13.60;52.71;100146.38;79831;1294;3013489;-66
2023/09/08 01:37:45;;;;;;;15.90;5.00;;;;;;;13.63;52.67;100148.85;79676;1292;3011639;-68
2023/09/08 01:40:13;;;;;;;13.90;5.00;;;;;;;13.60;53.01;100147.81;78589;1295;3055971;-68
2023/09/08 01:42:40;;;;;;;15.10;5.30;;;;;;;13.58;53.13;100147.27;79743;1292;3012953;-67
2023/09/08 01:45:07;;;;;;;13.00;5.00;;;;;;;13.56;53.16;100145.45;79755;1292;3012839;-66
2023/09/08 01:47:36;;;;;;;19.70;5.80;;;;;;;13.55;53.09;100143.23;78480;1298;3026169;-67
2023/09/08 01:50:03;;;;;;;16.00;5.60;;;;;;;13.51;53.28;100140.44;79757;1294;3013378;-67
2023/09/08 01:52:30;;;;;;;11.10;4.60;;;;;;;13.46;53.15;100133.90;79857;1291;3013000;-67
2023/09/08 01:54:58;;;;;;;11.60;5.30;;;;;;;13.41;53.17;100134.37;78519;1292;3055898;-67
2023/09/08 01:57:24;;;;;;;10.00;5.00;;;;;;;13.41;53.35;100130.17;79760;1294;3013870;-66
2023/09/08 01:59:51;;;;;;;18.10;6.00;;;;;;;13.44;53.26;100133.82;79790;1292;3012873;-69
2023/09/08 02:02:19;;;;;;;17.40;6.10;;;;;;;13.43;53.70;100130.71;78589;1296;3025901;-67
2023/09/08 02:04:46;;;;;;;18.30;6.90;;;;;;;13.42;53.62;100130.45;79878;1292;3013055;-67
2023/09/08 02:07:13;;;;;;;20.20;8.40;;;;;;;13.40;53.17;100130.39;79819;1292;3011270;-66
2023/09/08 02:09:42;;;;;;;19.00;7.50;;;;;;;13.40;53.40;100128.27;78616;1295;3028513;-68
2023/09/08 02:12:08;;;;;;;16.60;7.50;;;;;;;13.31;53.32;100129.52;79921;1293;3015808;-66
2023/09/08 02:14:35;;;;;;;13.90;6.70;;;;;;;13.26;53.62;100131.77;79819;1292;3011702;-67
2023/09/08 02:17:03;;;;;;;20.00;6.60;;;;;;;13.22;53.54;100129.55;78572;1291;3052581;-67
2023/09/08 02:19:30;;;;;;;12.50;6.40;;;;;;;13.22;53.63;100129.37;79828;1295;3013003;-69
2023/09/08 02:21:56;;;;;;;17.10;5.80;;;;;;;13.23;53.34;100130.13;79801;1294;3011550;-69
2023/09/08 02:24:25;;;;;;;13.90;6.20;;;;;;;13.27;53.57;100130.80;78538;1292;3025370;-68
2023/09/08 02:26:51;;;;;;;21.30;7.70;;;;;;;13.24;53.78;100126.98;79817;1295;3013918;-68
2023/09/08 02:29:18;;;;;;;16.20;7.00;;;;;;;13.24;53.78;100127.63;79693;1292;3011287;-68
2023/09/08 02:31:45;;;;;;;15.30;6.90;;;;;;;13.23;54.02;100132.98;78523;1297;3025947;-68
2023/09/08 02:34:12;;;;;;;17.80;7.00;;;;;;;13.22;53.80;100129.52;79776;1295;3013814;-68
2023/09/08 02:36:39;;;;;;;16.00;7.10;;;;;;;13.15;54.21;100132.73;79895;1291;3011642;-66
2023/09/08 02:39:07;;;;;;;38.30;6.60;;;;;;;13.14;54.19;100129.45;78717;1294;3027114;-69
2023/09/08 02:41:34;;;;;;;18.30;6.50;;;;;;;13.05;54.62;100131.08;79863;1292;3012811;-66
2023/09/08 02:44:01;;;;;;;14.70;7.40;;;;;;;12.96;54.78;100132.85;79806;1291;3011645;-67
2023/09/08 02:46:29;;;;;;;18.40;7.50;;;;;;;12.91;54.84;100132.98;78597;1297;3053068;-68
2023/09/08 02:48:56;;;;;;;17.70;6.80;;;;;;;12.85;55.38;100129.30;79733;1295;3019191;-66
2023/09/08 02:51:22;;;;;;;19.80;5.90;;;;;;;12.82;55.34;100127.52;79674;1295;3011571;-67
2023/09/08 02:53:50;;;;;;;14.50;6.30;;;;;;;12.81;55.66;100129.51;78618;1289;3026521;-68
2023/09/08 02:56:17;;;;;;;15.70;4.90;;;;;;;12.83;55.75;100129.59;79847;1295;3018883;-67
2023/09/08 02:58:44;;;;;;;19.20;4.90;;;;;;;12.86;55.75;100133.47;79760;1291;3011724;-70
2023/09/08 03:01:15;;;;;;;18.00;5.20;;;;;;;12.80;55.69;100132.02;78430;1294;3026260;-67
2023/09/08 03:03:43;;;;;;;16.00;5.40;;;;;;;12.75;56.00;100133.23;79761;1294;3013515;-68
2023/09/08 03:06:11;;;;;;;13.60;5.60;;;;;;;12.74;56.01;100133.27;78468;1292;3067941;-68
2023/09/08 03:08:39;;;;;;;13.10;3.70;;;;;;;12.66;56.34;100134.98;79773;1292;3011325;-67
2023/09/08 03:11:08;;;;;;;13.10;4.00;;;;;;;12.65;56.09;100135.73;79684;1291;3011715;-69
2023/09/08 03:13:36;;;;;;;9.80;4.20;;;;;;;12.63;56.43;100132.36;78472;1297;3052762;-68
2023/09/08 03:16:07;;;;;;;18.00;3.70;;;;;;;12.65;56.12;100138.90;80097;1294;3012973;-66
2023/09/08 03:18:36;;;;;;;12.00;4.40;;;;;;;12.68;56.06;100136.83;78666;1298;3053125;-66
2023/09/08 03:21:08;;;;;;;25.50;5.20;;;;;;;12.67;56.22;100139.30;79941;1294;3014771;-67
2023/09/08 03:23:40;;;;;;;14.70;5.60;;;;;;;12.69;56.18;100141.80;78579;1296;3055476;-67
2023/09/08 03:26:07;;;;;;;11.50;4.60;;;;;;;12.63;56.87;100135.30;79787;1298;3011911;-67
2023/09/08 03:28:35;;;;;;;11.30;5.10;;;;;;;12.63;57.21;100138.48;78735;1295;3026627;-66
2023/09/08 03:31:02;;;;;;;11.90;5.10;;;;;;;12.62;57.49;100138.34;80221;1295;3013218;-67
2023/09/08 03:33:33;;;;;;;13.70;5.40;;;;;;;12.65;57.98;100133.12;79274;1295;3011566;-69
2023/09/08 03:36:00;;;;;;;14.40;6.10;;;;;;;12.69;58.55;100130.59;80004;1292;3013050;-68
2023/09/08 03:38:28;;;;;;;12.90;6.50;;;;;;;12.69;58.79;100135.84;79797;1294;3011577;-66
2023/09/08 03:40:55;;;;;;;10.80;5.70;;;;;;;12.63;59.28;100136.88;78576;1293;3056755;-66
2023/09/08 03:43:22;;;;;;;14.80;6.30;;;;;;;12.61;59.55;100132.96;79780;1295;3018308;-66
2023/09/08 03:45:49;;;;;;;15.90;6.90;;;;;;;12.69;59.44;100134.83;79858;1295;3011643;-65
2023/09/08 03:48:16;;;;;;;13.60;6.80;;;;;;;12.65;60.32;100136.45;78731;1295;3026601;-67
2023/09/08 03:50:45;;;;;;;14.20;6.70;;;;;;;12.61;60.94;100136.80;79993;1292;3013077;-69
2023/09/08 03:53:12;;;;;;;15.30;6.50;;;;;;;12.56;61.62;100135.17;79745;1292;3011649;-68
2023/09/08 03:55:40;;;;;;;21.40;6.80;;;;;;;12.54;62.11;100138.11;78616;1295;3056509;-70
2023/09/08 03:58:08;;;;;;;22.00;7.00;;;;;;;12.57;62.09;100132.52;79934;1292;3014485;-69
2023/09/08 04:00:35;;;;;;;15.50;6.70;;;;;;;12.52;62.16;100131.04;79974;1289;3011717;-69
2023/09/08 04:03:03;;;;;;;13.40;6.70;;;;;;;12.54;62.30;100135.83;78714;1294;3052593;-69
2023/09/08 04:05:30;;;;;;;17.90;6.90;;;;;;;12.56;62.39;100138.33;79947;1295;3016038;-66
2023/09/08 04:07:57;;;;;;;17.50;7.60;;;;;;;12.58;62.08;100139.46;79850;1292;3012414;-67
2023/09/08 04:10:25;;;;;;;17.80;7.60;;;;;;;12.63;61.68;100136.20;78678;1289;3056250;-67
2023/09/08 04:12:51;;;;;;;12.30;6.10;;;;;;;12.66;61.03;100137.80;79956;1295;3011674;-67
2023/09/08 04:15:18;;;;;;;11.90;5.90;;;;;;;12.69;61.15;100131.80;79854;1295;3011867;-67
2023/09/08 04:17:45;;;;;;;11.00;5.20;;;;;;;12.79;61.00;100134.40;78751;1295;3026406;-68
2023/09/08 04:20:14;;;;;;;14.00;6.10;;;;;;;12.83;60.50;100133.59;80012;1294;3013515;-68
2023/09/08 04:22:41;;;;;;;16.00;5.70;;;;;;;12.92;59.93;100137.84;79802;1295;3012898;-70
2023/09/08 04:25:10;;;;;;;12.60;6.10;;;;;;;12.91;60.87;100138.09;78584;1295;3056654;-70
2023/09/08 04:27:37;;;;;;;17.40;6.70;;;;;;;12.92;60.91;100144.51;79916;1292;3013997;-71
2023/09/08 04:30:04;;;;;;;11.90;5.30;;;;;;;12.91;61.79;100145.59;79778;1290;3013685;-67
2023/09/08 04:32:32;;;;;;;9.80;5.10;;;;;;;12.98;61.80;100146.13;78897;1295;3052264;-69
2023/09/08 04:34:59;;;;;;;12.80;4.80;;;;;;;13.01;61.24;100146.09;79995;1289;3012587;-69
2023/09/08 04:37:25;;;;;;;16.20;6.70;;;;;;;13.07;61.48;100145.37;79946;1290;3011578;-68
2023/09/08 04:39:53;;;;;;;17.70;6.10;;;;;;;13.05;61.86;100140.58;78881;1294;3028132;-70
2023/09/08 04:42:20;;;;;;;9.80;5.00;;;;;;;13.12;62.25;100145.60;79909;1289;3013016;-70
2023/09/08 04:44:47;;;;;;;16.50;6.20;;;;;;;13.14;62.11;100147.91;79849;1295;3012917;-69
2023/09/08 04:47:15;;;;;;;12.00;5.50;;;;;;;13.25;61.76;100144.31;78605;1295;3026064;-70
2023/09/08 04:49:41;;;;;;;16.40;6.50;;;;;;;13.27;61.62;100141.88;79900;1292;3012960;-69
2023/09/08 04:52:08;;;;;;;13.70;5.40;;;;;;;13.34;61.66;100139.89;79789;1289;3013644;-70
2023/09/08 04:54:37;;;;;;;16.40;5.70;;;;;;;13.36;61.61;100138.16;78817;1295;3058145;-70
2023/09/08 04:57:04;;;;;;;20.20;5.50;;;;;;;13.43;61.10;100140.23;80021;1290;3013147;-69
2023/09/08 04:59:31;;;;;;;12.10;6.10;;;;;;;13.43;60.66;100143.19;79786;1295;3011586;-69
2023/09/08 05:01:59;;;;;;;9.80;5.40;;;;;;;13.50;60.69;100140.19;78692;1295;3052681;-71
2023/09/08 05:04:26;;;;;;;10.10;6.10;;;;;;;13.49;60.26;100143.06;79974;1304;3012857;-69
2023/09/08 05:06:53;;;;;;;15.00;5.10;;;;;;;13.56;60.17;100143.50;79887;1289;3013432;-71
2023/09/08 05:09:21;;;;;;;15.80;5.30;;;;;;;13.57;60.19;100142.56;78652;1289;3026164;-70
2023/09/08 05:11:48;;;;;;;13.90;4.80;;;;;;;13.60;60.29;100145.33;79894;1295;3012923;-70
2023/09/08 05:14:14;;;;;;;20.20;4.80;;;;;;;13.74;58.98;100143.09;79924;1295;3013136;-69
2023/09/08 05:16:46;;;;;;;12.40;5.00;;;;;;;13.85;57.45;100140.10;78756;1295;3026190;-70
2023/09/08 05:19:15;;;;;;;17.60;5.50;;;;;;;13.97;57.89;100141.11;79847;1295;3011560;-69
2023/09/08 05:21:43;;;;;;;18.00;4.70;;;;;;;14.07;58.06;100139.38;78735;1294;3070015;-70
2023/09/08 05:24:10;;;;;;;10.70;4.20;;;;;;;14.22;57.69;100138.06;79962;1290;3012866;-69
2023/09/08 05:26:38;;;;;;;13.30;5.60;;;;;;;14.34;57.95;100143.83;79971;1294;3013296;-69
2023/09/08 05:29:06;;;;;;;10.60;4.70;;;;;;;14.44;58.10;100143.82;78784;1290;3052874;-70
2023/09/08 05:31:33;;;;;;;13.40;5.10;;;;;;;14.57;57.74;100137.57;79891;1294;3013048;-70
2023/09/08 05:34:00;;;;;;;16.50;5.40;;;;;;;14.64;57.11;100137.83;79879;1295;3012728;-71
2023/09/08 05:36:29;;;;;;;18.40;5.20;;;;;;;14.66;57.21;100137.70;78656;1289;3025873;-70
2023/09/08 05:38:56;;;;;;;12.70;5.40;;;;;;;14.67;56.86;100137.61;79898;1295;3013138;-70
2023/09/08 05:41:22;;;;;;;10.40;4.20;;;;;;;14.77;56.55;100141.40;80136;1294;3013252;-69
2023/09/08 05:43:50;;;;;;;11.70;4.40;;;;;;;14.80;56.51;100140.45;78858;1290;3052344;-74
2023/09/08 05:46:18;;;;;;;12.50;4.40;;;;;;;14.90;56.04;100142.09;80083;1295;3012891;-68
2023/09/08 05:48:45;;;;;;;14.90;5.40;;;;;;;14.99;55.23;100143.77;79907;1293;3011669;-74
2023/09/08 05:51:14;;;;;;;17.90;4.60;;;;;;;15.11;55.22;100141.36;78640;1296;3068394;-69
2023/09/08 05:53:41;;;;;;;8.80;3.70;;;;;;;15.16;54.89;100137.80;79887;1294;3012941;-70
2023/09/08 05:56:08;;;;;;;12.30;3.90;;;;;;;15.27;54.17;100135.48;79835;1289;3011572;-69
2023/09/08 05:58:36;;;;;;;15.50;4.50;;;;;;;15.39;54.61;100134.98;78577;1295;3053487;-70
2023/09/08 06:01:03;;;;;;;11.40;3.80;;;;;;;15.37;54.37;100135.16;79925;1302;3013114;-69
2023/09/08 06:03:31;;;;;;;17.10;4.30;;;;;;;15.38;53.33;100135.75;79833;1296;3013695;-68
2023/09/08 06:05:59;;;;;;;10.40;4.20;;;;;;;15.47;54.07;100138.33;78766;1289;3026591;-71
2023/09/08 06:08:26;;;;;;;17.00;4.60;;;;;;;15.59;53.73;100138.86;79979;1293;3013611;-69
2023/09/08 06:10:52;;;;;;;14.10;4.20;;;;;;;15.64;53.51;100140.30;79832;1295;3013307;-68
2023/09/08 06:13:21;;;;;;;14.90;3.80;;;;;;;15.75;53.20;100145.85;78629;1294;3053767;-68
2023/09/08 06:15:48;;;;;;;16.80;3.70;;;;;;;15.78;52.37;100143.91;79947;1292;3013218;-73
2023/09/08 06:18:14;;;;;;;12.70;3.60;;;;;;;15.76;52.18;100146.16;79923;1296;3011667;-75
2023/09/08 06:20:45;;;;;;;11.90;2.90;;;;;;;15.85;52.62;100147.33;78773;1290;3067763;-75
2023/09/08 06:23:12;;;;;;;11.60;3.10;;;;;;;15.99;52.20;100140.14;80137;1294;3013476;-70
2023/09/08 06:25:38;;;;;;;12.30;2.70;;;;;;;16.03;50.38;100143.58;79973;1290;3011550;-74
2023/09/08 06:28:06;;;;;;;10.50;2.40;;;;;;;15.96;50.63;100146.88;78541;1295;3054665;-73
2023/09/08 06:30:33;;;;;;;7.70;2.40;;;;;;;15.94;50.63;100144.95;79817;1303;3013932;-68
2023/09/08 06:33:00;;;;;;;7.10;2.50;;;;;;;16.08;50.08;100142.83;79876;1291;3012980;-68
2023/09/08 06:35:29;;;;;;;14.00;3.20;;;;;;;16.22;50.89;100139.89;78935;1290;3069649;-69
2023/09/08 06:37:57;;;;;;;7.90;2.70;;;;;;;16.39;50.42;100133.52;79743;1290;3013626;-68
2023/09/08 06:40:26;;;;;;;9.20;2.50;;;;;;;16.59;50.06;100134.35;78661;1292;3028996;-68
2023/09/08 06:42:53;;;;;;;15.30;2.80;;;;;;;16.72;48.31;100131.05;80147;1292;3012629;-70
2023/09/08 06:45:29;;;;;;;8.50;2.40;;;;;;;16.83;48.33;100128.99;78691;1290;3049986;-68
2023/09/08 06:47:56;;;;;;;11.30;2.30;;;;;;;16.92;47.62;100131.71;79762;1296;3018876;-68
2023/09/08 06:50:22;;;;;;;14.40;3.00;;;;;;;17.04;47.37;100131.11;80061;1291;3011706;-73
2023/09/08 06:52:50;;;;;;;16.70;2.40;;;;;;;17.15;46.66;100129.56;78674;1296;3025684;-67
2023/09/08 06:55:17;;;;;;;4.50;1.80;;;;;;;17.25;45.43;100127.50;79928;1289;3013389;-70
2023/09/08 06:57:44;;;;;;;4.60;1.60;;;;;;;17.28;43.70;100131.73;79917;1295;3011634;-74
2023/09/08 07:00:13;;;;;;;7.70;1.50;;;;;;;17.37;42.99;100126.09;78493;1295;3025800;-74
2023/09/08 07:02:40;;;;;;;9.00;1.80;;;;;;;17.43;42.88;100129.14;80121;1292;3013849;-73
2023/09/08 07:05:08;;;;;;;8.20;1.70;;;;;;;17.40;43.83;100126.91;80272;1295;3011420;-73
2023/09/08 07:07:35;;;;;;;6.60;1.60;;;;;;;17.52;43.63;100127.61;78616;1293;3051130;-75
2023/09/08 07:10:03;;;;;;;3.00;1.30;;;;;;;17.69;43.62;100129.05;80001;1294;3013108;-68
2023/09/08 07:12:30;;;;;;;5.90;2.10;;;;;;;17.75;42.31;100127.92;79944;1292;3011501;-69
2023/09/08 07:14:59;;;;;;;6.40;2.20;;;;;;;17.76;42.75;100122.98;78621;1289;3049644;-71
2023/09/08 07:17:26;;;;;;;6.50;1.50;;;;;;;17.85;42.23;100120.14;80163;1290;3011796;-70
2023/09/08 07:19:53;;;;;;;11.30;1.70;;;;;;;17.98;41.45;100115.28;79990;1292;3011612;-69
2023/09/08 07:22:22;;;;;;;5.60;1.30;;;;;;;17.98;40.91;100114.22;78951;1295;3050941;-71
2023/09/08 07:24:49;;;;;;;6.30;1.40;;;;;;;18.07;41.02;100112.73;80145;1289;3013349;-70
2023/09/08 07:27:17;;;;;;;8.80;1.80;;;;;;;18.16;40.67;100114.13;80084;1289;3013484;-70
2023/09/08 07:29:47;;;;;;;6.80;2.00;;;;;;;18.16;40.41;100111.31;78912;1295;3049573;-68
2023/09/08 07:32:15;;;;;;;7.70;1.80;;;;;;;17.98;39.37;100115.63;80079;1295;3013237;-69
2023/09/08 07:34:41;;;;;;;8.40;2.10;;;;;;;17.85;39.35;100112.42;79941;1295;3011639;-68
2023/09/08 07:37:09;;;;;;;10.50;1.80;;;;;;;17.78;39.63;100109.35;78591;1291;3050514;-69
2023/09/08 07:39:36;;;;;;;11.20;3.60;;;;;;;17.76;39.56;100106.40;80161;1289;3015839;-71
2023/09/08 07:42:03;;;;;;;9.40;1.40;;;;;;;17.83;38.98;100111.16;79978;1294;3013064;-70
2023/09/08 07:44:31;;;;;;;6.20;1.10;;;;;;;17.81;38.75;100104.59;78966;1289;3025383;-70
2023/09/08 07:46:58;;;;;;;5.40;1.50;;;;;;;17.86;38.76;100106.77;80097;1295;3013043;-70
2023/09/08 07:49:24;;;;;;;12.00;1.70;;;;;;;17.73;38.59;100102.13;80058;1294;3012552;-71
2023/09/08 07:51:52;;;;;;;8.90;1.50;;;;;;;17.86;38.46;100096.85;78939;1289;3026629;-70
2023/09/08 07:54:18;;;;;;;8.90;2.60;;;;;;;18.03;38.73;100096.06;80196;1294;3012678;-72
2023/09/08 07:56:45;;;;;;;10.40;2.00;;;;;;;18.11;38.35;100093.66;80049;1295;3011802;-70
2023/09/08 07:59:13;;;;;;;6.30;1.60;;;;;;;18.26;37.99;100089.44;78914;1296;3026802;-71
2023/09/08 08:01:40;;;;;;;2.70;1.10;;;;;;;18.32;37.58;100089.08;80016;1294;3019103;-71
2023/09/08 08:04:06;;;;;;;4.40;0.80;;;;;;;18.28;38.29;100090.11;80384;1290;3012020;-70
2023/09/08 08:06:34;;;;;;;3.70;0.90;;;;;;;18.14;38.16;100096.62;78867;1289;3028089;-70
2023/09/08 08:09:01;;;;;;;4.20;0.80;;;;;;;18.23;37.98;100085.88;79976;1290;3014993;-68
2023/09/08 08:11:28;;;;;;;4.30;1.10;;;;;;;18.29;38.25;100085.10;80036;1295;3011610;-69
2023/09/08 08:13:56;;;;;;;6.50;1.80;;;;;;;18.31;38.95;100082.60;76660;1294;3092601;-69
2023/09/08 08:16:24;;;;;;;14.00;2.30;;;;;;;18.33;39.34;100080.46;79935;1294;3013377;-69
2023/09/08 08:18:50;;;;;;;8.10;2.10;;;;;;;18.27;39.80;100076.36;80575;1289;3011739;-69
2023/09/08 08:21:18;;;;;;;8.60;1.70;;;;;;;18.31;39.41;100072.64;78788;1294;3051613;-67
2023/09/08 08:23:45;;;;;;;5.50;1.90;;;;;;;18.38;39.45;100073.14;80129;1294;3012635;-66
2023/09/08 08:26:11;;;;;;;4.00;1.60;;;;;;;18.44;39.70;100067.35;79903;1289;3013181;-67
2023/09/08 08:28:39;;;;;;;4.90;1.50;;;;;;;18.41;39.61;100064.70;78780;1292;3026570;-64
2023/09/08 08:31:05;;;;;;;4.30;1.60;;;;;;;18.50;39.72;100065.74;79984;1295;3013063;-66
2023/09/08 08:33:32;;;;;;;6.10;1.60;;;;;;;18.49;39.41;100066.23;79916;1290;3013058;-64
2023/09/08 08:36:00;;;;;;;14.70;2.40;;;;;;;18.48;39.64;100070.03;78984;1292;3026330;-69
2023/09/08 08:38:27;;;;;;;10.70;3.00;;;;;;;18.47;39.75;100064.60;79987;1290;3019136;-66
2023/09/08 08:40:53;;;;;;;12.80;2.70;;;;;;;18.69;39.78;100056.67;80059;1289;3011597;-64
2023/09/08 08:43:22;;;;;;;5.70;2.50;;;;;;;18.92;38.91;100056.02;79025;1294;3028146;-71
2023/09/08 08:45:48;;;;;;;7.50;2.40;;;;;;;19.12;38.90;100051.67;80128;1295;3012807;-69
2023/09/08 08:48:15;;;;;;;8.70;1.90;;;;;;;19.14;38.52;100055.05;79997;1296;3011594;-73
2023/09/08 08:50:43;;;;;;;5.60;1.90;;;;;;;19.06;38.44;100048.04;78552;1298;3050711;-68
2023/09/08 08:53:09;;;;;;;9.30;1.70;;;;;;;19.05;38.28;100044.42;80498;1289;3013029;-69
2023/09/08 08:55:36;;;;;;;13.50;2.00;;;;;;;19.10;38.12;100039.59;80171;1294;3011584;-69
2023/09/08 08:58:04;;;;;;;8.50;1.40;;;;;;;19.21;38.33;100037.86;78696;1293;3026044;-69
2023/09/08 09:00:31;;;;;;;4.70;1.30;;;;;;;19.37;37.76;100033.80;79958;1295;3020592;-71
2023/09/08 09:02:57;;;;;;;5.60;1.70;;;;;;;19.55;37.45;100034.16;79785;1297;3012179;-68
2023/09/08 09:05:25;;;;;;;10.80;2.00;;;;;;;19.52;37.29;100032.30;78714;1290;3029202;-70
2023/09/08 09:07:52;;;;;;;8.70;2.10;;;;;;;19.44;37.93;100037.45;79977;1289;3012751;-68
2023/09/08 09:10:18;;;;;;;5.30;2.10;;;;;;;19.46;38.13;100034.27;79898;1292;3011609;-68
2023/09/08 09:12:46;;;;;;;6.90;1.90;;;;;;;19.64;37.36;100031.77;78697;1298;3026318;-68
2023/09/08 09:15:12;;;;;;;3.90;1.50;;;;;;;19.59;37.37;100036.16;79993;1294;3018612;-66
2023/09/08 09:17:39;;;;;;;9.10;1.60;;;;;;;19.61;37.15;100027.55;79975;1289;3013452;-65
2023/09/08 09:20:19;;;;;;;4.00;1.80;;;;;;;19.59;37.24;100021.19;78617;1292;3028381;-72
2023/09/08 09:22:49;;;;;;;4.20;1.90;;;;;;;19.75;37.06;100015.50;78557;1289;3056474;-68
2023/09/08 09:25:26;;;;;;;6.80;2.20;;;;;;;19.95;37.09;100014.25;80096;1291;3013089;-71
2023/09/08 09:27:55;;;;;;;5.60;1.90;;;;;;;19.97;37.41;100018.58;78721;1293;3051366;-70
2023/09/08 09:30:22;;;;;;;9.00;2.00;;;;;;;20.01;37.23;100015.32;79998;1290;3015051;-69
2023/09/08 09:33:02;;;;;;;10.60;2.10;;;;;;;20.04;36.85;100006.17;79926;1289;3011914;-68
2023/09/08 09:35:46;;;;;;;6.30;1.90;;;;;;;20.18;36.60;100002.95;78664;1290;3051642;-69
2023/09/08 09:38:14;;;;;;;7.70;1.40;;;;;;;20.31;35.67;100001.00;78652;1294;3057232;-68
2023/09/08 09:40:40;;;;;;;6.30;1.60;;;;;;;20.46;35.03;100000.89;79920;1289;3013234;-70
2023/09/08 09:43:08;;;;;;;6.50;1.30;;;;;;;20.59;34.65;99996.23;80045;1292;3011808;-70
2023/09/08 09:45:37;;;;;;;8.70;1.40;;;;;;;20.70;33.88;99990.11;78690;1293;3051264;-69
2023/09/08 09:48:04;;;;;;;8.70;1.40;;;;;;;20.87;33.65;99987.23;79910;1294;3013112;-72
2023/09/08 09:50:35;;;;;;;14.30;1.00;;;;;;;21.07;33.20;99981.80;80009;1289;3013093;-71
2023/09/08 09:53:11;;;;;;;6.30;1.30;;;;;;;21.04;33.09;99978.52;78573;1289;3056416;-67
2023/09/08 09:55:40;;;;;;;8.40;1.10;;;;;;;21.14;33.13;99974.17;78726;1294;3048911;-70
2023/09/08 09:58:07;;;;;;;4.30;1.30;;;;;;;21.21;33.19;99969.04;79871;1290;3013003;-68
2023/09/08 10:00:34;;;;;;;3.20;1.10;;;;;;;21.35;32.98;99966.40;79996;1292;3011953;-69
2023/09/08 10:03:03;;;;;;;6.50;1.30;;;;;;;21.03;32.12;99973.14;78838;1294;3053375;-71
2023/09/08 10:05:30;;;;;;;4.00;1.10;;;;;;;21.09;32.16;99967.90;79872;1291;3013039;-69
2023/09/08 10:07:57;;;;;;;1.90;0.90;;;;;;;21.19;32.29;99961.56;79874;1293;3011883;-72
2023/09/08 10:10:25;;;;;;;6.60;1.00;;;;;;;20.92;32.10;99960.45;78479;1292;3048768;-71
2023/09/08 10:12:52;;;;;;;3.20;1.30;;;;;;;20.99;32.10;99953.50;79882;1292;3014528;-69
2023/09/08 10:15:23;;;;;;;5.50;0.90;;;;;;;21.13;32.13;99955.54;80164;1295;3011406;-67
2023/09/08 10:17:54;;;;;;;4.30;1.00;;;;;;;21.41;31.89;99952.42;79199;1292;3052100;-67
2023/09/08 10:20:25;;;;;;;8.20;0.90;;;;;;;21.27;31.40;99957.91;79885;1294;3012217;-69
2023/09/08 10:23:24;;;;;;;5.70;1.30;;;;;;;21.07;31.44;99959.30;78548;1292;3051879;-64
2023/09/08 10:25:54;;;;;;;1.70;1.00;;;;;;;21.01;31.48;99957.45;78592;1295;3057483;-69
2023/09/08 10:28:24;;;;;;;6.40;1.50;;;;;;;21.15;30.81;99951.10;80048;1291;3013249;-64
2023/09/08 10:30:52;;;;;;;4.50;1.20;;;;;;;21.29;31.00;99938.20;78813;1297;3052078;-69
2023/09/08 10:33:18;;;;;;;2.00;1.10;;;;;;;21.11;31.06;99944.52;80128;1307;3013062;-67
2023/09/08 10:35:45;;;;;;;6.60;1.30;;;;;;;21.15;30.81;99947.73;79496;1297;3013027;-63
2023/09/08 10:38:26;;;;;;;6.70;1.10;;;;;;;21.40;31.16;99939.38;78584;1294;3026196;-68
2023/09/08 10:41:16;;;;;;;2.30;1.00;;;;;;;21.69;30.75;99934.20;78645;1295;3052678;-67
2023/09/08 10:44:04;;;;;;;2.30;1.10;;;;;;;21.81;30.44;99929.14;78801;1292;3056236;-66
2023/09/08 10:46:33;;;;;;;4.00;1.30;;;;;;;22.06;30.51;99929.11;78613;1292;3048784;-68
2023/09/08 10:49:06;;;;;;;9.90;1.30;;;;;;;22.27;30.80;99925.17;80122;1295;3013660;-67
2023/09/08 10:51:35;;;;;;;2.20;1.40;;;;;;;22.60;30.70;99921.68;78850;1295;3052776;-67
2023/09/08 10:54:02;;;;;;;4.40;1.30;;;;;;;22.70;30.52;99917.92;80085;1294;3018738;-68
2023/09/08 10:56:47;;;;;;;5.30;1.60;;;;;;;22.49;29.39;99927.59;79790;1294;3011820;-69
2023/09/08 10:59:15;;;;;;;3.80;1.10;;;;;;;22.06;29.46;99922.64;78626;1297;3056238;-66
2023/09/08 11:01:42;;;;;;;5.50;1.70;;;;;;;21.93;29.59;99919.75;79850;1292;3013062;-67
2023/09/08 11:04:10;;;;;;;6.60;2.00;;;;;;;21.73;30.01;99916.73;79896;1292;3011685;-69
2023/09/08 11:06:38;;;;;;;8.00;2.00;;;;;;;21.68;30.23;99915.13;78416;1294;3053033;-66
2023/09/08 11:09:08;;;;;;;7.50;1.90;;;;;;;21.97;30.20;99899.02;80017;1294;3013021;-67